Terminal Aerodrome Forecast
Issued by NWS

Home | Current Version | Previous Version | Text Only | Print | Product List | Glossary On
Versions: 1 2 3 4 5 6 7 8 9 10 11 12 13 14 15 16 17
000
FTUS45 KSLC 211145
TAF36U
TAF
K36U 211145Z 2112/2212 16010KT P6SM -SHRA SCT040 BKN060
     FM211600 22012G19KT P6SM SCT080
     FM220100 30013G26KT 6SM -RA BKN025 OVC050
     FM220600 04007KT 2SM -SHSN BR OVC025=

USA.gov is the U.S. government's official web portal to all federal, state and local government web resources and services.